createdAt,value
2019-04-20T00:00:01.046Z,100729.02
2019-04-20T00:02:32.212Z,100726.05
2019-04-20T00:05:23.204Z,100730.31
2019-04-20T00:08:03.228Z,100724.32
2019-04-20T00:10:54.278Z,100728.59
2019-04-20T00:13:37.815Z,100729.86
2019-04-20T00:16:10.453Z,100729.45
2019-04-20T00:19:03.233Z,100729.88
2019-04-20T00:24:38.630Z,100728.17
2019-04-20T00:27:38.887Z,100726.88
2019-04-20T00:30:21.086Z,100729.44
2019-04-20T00:32:54.689Z,100729.40
2019-04-20T00:35:25.080Z,100737.07
2019-04-20T00:38:09.863Z,100728.92
2019-04-20T00:40:59.434Z,100723.34
2019-04-20T00:43:38.780Z,100719.07
2019-04-20T00:46:26.360Z,100719.02
2019-04-20T00:49:17.232Z,100719.00
2019-04-20T00:52:13.140Z,100716.78
2019-04-20T00:54:24.537Z,100723.18
2019-04-20T00:57:24.687Z,100716.42
2019-04-20T01:00:17.660Z,100716.83
2019-04-20T01:02:50.498Z,100715.55
2019-04-20T01:05:59.684Z,100718.55
2019-04-20T01:08:40.252Z,100715.52
2019-04-20T01:11:36.745Z,100717.21
2019-04-20T01:14:15.611Z,100716.78
2019-04-20T01:17:10.984Z,100720.58
2019-04-20T01:19:42.829Z,100710.75
2019-04-20T01:22:18.465Z,100712.43
2019-04-20T01:25:11.196Z,100711.09
2019-04-20T01:28:18.336Z,100710.66
2019-04-20T01:30:30.309Z,100714.84
2019-04-20T01:33:18.831Z,100711.43
2019-04-20T01:36:03.553Z,100711.91
2019-04-20T01:38:44.243Z,100705.13
2019-04-20T01:41:07.865Z,100705.16
2019-04-20T01:43:58.570Z,100702.12
2019-04-20T01:46:53.544Z,100699.99
2019-04-20T01:49:35.197Z,100703.38
2019-04-20T01:55:45.706Z,100704.95
2019-04-20T01:58:52.394Z,100707.89
2019-04-20T02:01:34.377Z,100713.40
2019-04-20T02:04:22.448Z,100713.32
2019-04-20T02:07:02.935Z,100713.33
2019-04-20T02:09:49.876Z,100710.25
2019-04-20T02:12:30.427Z,100710.59
2019-04-20T02:18:22.859Z,100710.41
2019-04-20T02:21:22.089Z,100709.52
2019-04-20T02:23:48.276Z,100709.02
2019-04-20T02:26:18.060Z,100712.81
2019-04-20T02:29:30.640Z,100708.92
2019-04-20T02:35:27.891Z,100708.78
2019-04-20T02:46:15.320Z,100713.25
2019-04-20T02:49:10.138Z,100709.47
2019-04-20T02:51:46.868Z,100709.43
2019-04-20T02:54:28.549Z,100707.25
2019-04-20T02:57:14.304Z,100708.08
2019-04-20T03:00:03.200Z,100706.73
2019-04-20T03:02:14.768Z,100707.11
2019-04-20T03:04:49.155Z,100711.72
2019-04-20T03:07:50.339Z,100704.48
2019-04-20T03:10:43.411Z,100705.67
2019-04-20T03:13:14.410Z,100707.84
2019-04-20T03:16:00.106Z,100704.06
2019-04-20T03:18:42.848Z,100707.93
2019-04-20T03:21:27.369Z,100707.97
2019-04-20T03:24:06.438Z,100709.98
2019-04-20T03:26:59.814Z,100709.88
2019-04-20T03:30:04.183Z,100714.84
2019-04-20T03:33:12.658Z,100715.48
2019-04-20T03:35:45.988Z,100714.08
2019-04-20T03:38:20.095Z,100716.58
2019-04-20T03:40:49.811Z,100717.39
2019-04-20T03:43:20.181Z,100719.03
2019-04-20T03:46:07.517Z,100716.76
2019-04-20T03:49:05.906Z,100723.57
2019-04-20T03:51:53.343Z,100726.58
2019-04-20T03:54:43.449Z,100727.77
2019-04-20T04:01:13.323Z,100729.19
2019-04-20T04:04:19.408Z,100727.04
2019-04-20T04:06:41.264Z,100732.08
2019-04-20T04:09:21.399Z,100732.08
2019-04-20T04:12:05.702Z,100728.31
2019-04-20T04:14:35.256Z,100729.59
2019-04-20T04:17:33.118Z,100732.55
2019-04-20T04:20:20.717Z,100726.13
2019-04-20T04:23:15.014Z,100725.77
2019-04-20T04:26:01.933Z,100725.02
2019-04-20T04:28:40.696Z,100729.30
2019-04-20T04:31:28.119Z,100727.20
2019-04-20T04:34:10.740Z,100729.80
2019-04-20T04:36:59.357Z,100728.98
2019-04-20T04:39:42.921Z,100731.63
2019-04-20T04:42:35.144Z,100737.69
2019-04-20T04:44:53.531Z,100732.83
2019-04-20T04:47:32.566Z,100741.89
2019-04-20T04:50:56.479Z,100735.20
2019-04-20T04:53:40.822Z,100741.24
2019-04-20T04:56:14.121Z,100745.61
2019-04-20T04:58:53.705Z,100743.14
2019-04-20T05:01:38.616Z,100745.36
2019-04-20T05:07:49.589Z,100742.22
2019-04-20T05:13:19.809Z,100754.83
2019-04-20T05:16:33.747Z,100747.30
2019-04-20T05:22:13.764Z,100743.04
2019-04-20T05:25:10.644Z,100743.15
2019-04-20T05:30:43.924Z,100741.92
2019-04-20T05:33:25.440Z,100739.91
2019-04-20T05:36:14.731Z,100741.26
2019-04-20T05:39:05.219Z,100744.72
2019-04-20T05:41:37.324Z,100748.16
2019-04-20T05:47:24.025Z,100749.47
2019-04-20T05:49:53.872Z,100744.83
2019-04-20T05:52:53.663Z,100744.83
2019-04-20T05:55:25.266Z,100743.55
2019-04-20T05:58:08.821Z,100745.70
2019-04-20T06:00:55.407Z,100746.52
2019-04-20T06:03:33.571Z,100747.80
2019-04-20T06:06:16.818Z,100743.11
2019-04-20T06:08:59.631Z,100749.97
2019-04-20T06:11:52.371Z,100749.95
2019-04-20T06:14:39.199Z,100751.58
2019-04-20T06:20:31.292Z,100743.40
2019-04-20T06:23:34.628Z,100746.33
2019-04-20T06:26:33.585Z,100754.42
2019-04-20T06:29:18.430Z,100761.62
2019-04-20T06:32:05.090Z,100756.92
2019-04-20T06:35:02.480Z,100753.80
2019-04-20T06:37:29.297Z,100749.00
2019-04-20T06:40:35.126Z,100751.05
2019-04-20T06:42:59.957Z,100745.82
2019-04-20T06:45:51.142Z,100750.89
2019-04-20T06:48:36.346Z,100752.08
2019-04-20T06:51:09.205Z,100749.00
2019-04-20T06:53:51.560Z,100747.60
2019-04-20T06:56:42.081Z,100752.16
2019-04-20T06:59:27.577Z,100752.37
2019-04-20T07:02:11.709Z,100752.44
2019-04-20T07:04:48.135Z,100755.34
2019-04-20T07:07:27.921Z,100746.92
2019-04-20T07:10:08.692Z,100752.74
2019-04-20T07:12:33.059Z,100751.95
2019-04-20T07:15:19.894Z,100748.48
2019-04-20T07:18:09.535Z,100751.31
2019-04-20T07:21:09.878Z,100755.45
2019-04-20T07:23:41.865Z,100755.98
2019-04-20T07:26:24.203Z,100754.69
2019-04-20T07:29:07.129Z,100759.20
2019-04-20T07:31:44.544Z,100757.03
2019-04-20T07:34:34.822Z,100754.31
2019-04-20T07:40:15.151Z,100743.19
2019-04-20T07:42:58.995Z,100746.00
2019-04-20T07:45:36.478Z,100757.34
2019-04-20T07:48:26.211Z,100746.16
2019-04-20T07:50:56.829Z,100741.36
2019-04-20T07:53:42.218Z,100741.14
2019-04-20T07:56:32.611Z,100744.55
2019-04-20T07:58:57.105Z,100746.70
2019-04-20T08:02:29.430Z,100740.27
2019-04-20T08:10:28.715Z,100746.48
2019-04-20T08:13:21.563Z,100741.87
2019-04-20T08:16:00.956Z,100739.64
2019-04-20T08:18:41.268Z,100739.53
2019-04-20T08:21:22.863Z,100748.48
2019-04-20T08:24:02.414Z,100742.88
2019-04-20T08:26:30.951Z,100740.88
2019-04-20T08:35:20.104Z,100734.86
2019-04-20T08:38:32.613Z,100734.73
2019-04-20T08:40:44.161Z,100729.77
2019-04-20T08:43:39.585Z,100725.56
2019-04-20T08:46:05.510Z,100724.72
2019-04-20T08:48:46.788Z,100722.15
2019-04-20T08:51:41.640Z,100721.32
2019-04-20T08:54:14.374Z,100720.84
2019-04-20T08:56:46.188Z,100726.80
2019-04-20T08:59:23.266Z,100722.41
2019-04-20T09:02:09.882Z,100720.89
2019-04-20T09:04:55.231Z,100718.62
2019-04-20T09:07:32.054Z,100722.66
2019-04-20T09:13:26.966Z,100710.62
2019-04-20T09:16:10.858Z,100702.56
2019-04-20T09:18:56.406Z,100706.69
2019-04-20T09:21:40.266Z,100700.83
2019-04-20T09:24:38.197Z,100702.77
2019-04-20T09:30:05.795Z,100697.28
2019-04-20T09:32:43.949Z,100702.41
2019-04-20T09:35:38.729Z,100697.67
2019-04-20T09:38:14.456Z,100697.37
2019-04-20T09:41:03.580Z,100695.35
2019-04-20T09:43:38.996Z,100692.26
2019-04-20T09:46:16.002Z,100688.82
2019-04-20T09:48:51.193Z,100692.22
2019-04-20T09:51:55.126Z,100695.37
2019-04-20T09:54:40.304Z,100694.88
2019-04-20T09:57:26.790Z,100696.53
2019-04-20T10:00:10.254Z,100686.59
2019-04-20T10:02:35.007Z,100676.06
2019-04-20T10:05:15.682Z,100671.95
2019-04-20T10:10:43.806Z,100674.91
2019-04-20T10:13:27.178Z,100667.96
2019-04-20T10:16:09.198Z,100662.64
2019-04-20T10:18:59.004Z,100666.74
2019-04-20T10:21:48.758Z,100663.40
2019-04-20T10:24:39.564Z,100661.09
2019-04-20T10:27:10.683Z,100659.80
2019-04-20T10:30:02.758Z,100662.21
2019-04-20T10:32:53.937Z,100650.92
2019-04-20T10:35:29.832Z,100662.21
2019-04-20T10:38:27.864Z,100658.67
2019-04-20T10:41:11.463Z,100648.81
2019-04-20T10:43:47.216Z,100647.66
2019-04-20T10:46:37.002Z,100647.75
2019-04-20T10:49:27.134Z,100644.91
2019-04-20T10:52:09.837Z,100644.34
2019-04-20T10:55:00.644Z,100641.24
2019-04-20T10:57:43.801Z,100639.75
2019-04-20T11:04:02.952Z,100639.27
2019-04-20T11:06:47.551Z,100642.19
2019-04-20T11:09:18.504Z,100644.00
2019-04-20T11:12:10.440Z,100635.95
2019-04-20T11:14:48.010Z,100638.04
2019-04-20T11:17:31.707Z,100637.56
2019-04-20T11:23:18.219Z,100629.88
2019-04-20T11:26:08.516Z,100624.48
2019-04-20T11:28:52.291Z,100619.69
2019-04-20T11:31:40.920Z,100625.67
2019-04-20T11:34:14.909Z,100625.65
2019-04-20T11:36:55.098Z,100618.48
2019-04-20T11:40:06.278Z,100619.70
2019-04-20T11:42:41.787Z,100617.81
2019-04-20T11:45:32.914Z,100610.50
2019-04-20T11:48:23.377Z,100608.45
2019-04-20T11:51:01.396Z,100601.23
2019-04-20T11:53:43.331Z,100603.50
2019-04-20T11:56:38.308Z,100601.86
2019-04-20T12:03:21.824Z,100589.95
2019-04-20T12:05:53.700Z,100574.62
2019-04-20T12:09:14.941Z,100577.28
2019-04-20T12:12:10.193Z,100580.37
2019-04-20T12:14:40.978Z,100570.13
2019-04-20T12:17:23.793Z,100571.88
2019-04-20T12:23:18.107Z,100569.33
2019-04-20T12:25:48.456Z,100560.25
2019-04-20T12:28:38.264Z,100558.49
2019-04-20T12:31:29.317Z,100553.06
2019-04-20T12:34:11.449Z,100554.08
2019-04-20T12:36:55.309Z,100553.05
2019-04-20T12:39:33.131Z,100547.34
2019-04-20T12:42:11.125Z,100548.22
2019-04-20T12:44:53.392Z,100549.09
2019-04-20T12:47:57.600Z,100547.50
2019-04-20T12:50:39.749Z,100543.61
2019-04-20T12:53:10.629Z,100542.91
2019-04-20T12:56:02.291Z,100538.70
2019-04-20T12:58:45.190Z,100542.28
2019-04-20T13:01:35.434Z,100527.12
2019-04-20T13:04:26.813Z,100525.23
2019-04-20T13:07:10.175Z,100522.14
2019-04-20T13:13:32.618Z,100515.50
2019-04-20T13:19:13.192Z,100512.92
2019-04-20T13:21:44.796Z,100502.27
2019-04-20T13:24:35.098Z,100508.83
2019-04-20T13:27:25.093Z,100507.57
2019-04-20T13:30:48.060Z,100504.67
2019-04-20T13:33:25.209Z,100502.19
2019-04-20T13:35:56.397Z,100504.72
2019-04-20T13:38:48.013Z,100499.83
2019-04-20T13:41:24.598Z,100492.84
2019-04-20T13:43:57.917Z,100490.48
2019-04-20T13:46:40.921Z,100481.67
2019-04-20T13:49:22.971Z,100479.68
2019-04-20T13:52:00.064Z,100480.69
2019-04-20T13:54:32.087Z,100471.24
2019-04-20T14:00:29.505Z,100472.08
2019-04-20T14:03:20.604Z,100464.74
2019-04-20T14:05:56.841Z,100458.53
2019-04-20T14:08:47.382Z,100452.46
2019-04-20T14:11:29.743Z,100456.49
2019-04-20T14:14:19.528Z,100457.09
2019-04-20T14:17:10.535Z,100446.67
2019-04-20T14:19:53.038Z,100441.45
2019-04-20T14:22:36.562Z,100433.17
2019-04-20T14:25:13.207Z,100436.86
2019-04-20T14:27:57.267Z,100434.33
2019-04-20T14:30:40.173Z,100433.58
2019-04-20T14:33:23.077Z,100439.66
2019-04-20T14:36:00.976Z,100434.59
2019-04-20T14:38:56.288Z,100425.53
2019-04-20T14:41:46.522Z,100425.53
2019-04-20T14:47:19.261Z,100417.47
2019-04-20T14:50:02.977Z,100417.45
2019-04-20T14:52:39.708Z,100412.64
2019-04-20T14:55:22.563Z,100418.33
2019-04-20T15:01:27.213Z,100409.94
2019-04-20T15:04:20.359Z,100413.02
2019-04-20T15:07:00.399Z,100413.66
2019-04-20T15:09:32.554Z,100399.35
2019-04-20T15:12:22.295Z,100399.41
2019-04-20T15:15:12.559Z,100393.20
2019-04-20T15:20:42.097Z,100390.49
2019-04-20T15:23:33.132Z,100381.97
2019-04-20T15:26:16.072Z,100378.17
2019-04-20T15:28:52.588Z,100389.77
2019-04-20T15:31:43.778Z,100383.89
2019-04-20T15:34:35.022Z,100379.37
2019-04-20T15:37:18.174Z,100380.13
2019-04-20T15:39:54.946Z,100376.80
